Time;durP1;ratioP1;P1;durP2;ratioP2;P2;SDS_P1;SDS_P2;PMS_P1;PMS_P2;Temp;Humidity;BMP_temperature;BMP_pressure;BME280_temperature;BME280_humidity;BME280_pressure;Samples;Min_cycle;Max_cycle;Signal;HPM_P1;HPM_P2
2023/05/24 00:01:46;;;;;;;17.13;7.88;;;;;;;13.51;80.95;99124.09;4867789;29;20029;-92
2023/05/24 00:04:13;;;;;;;17.73;8.75;;;;;;;13.51;80.77;99126.00;4867592;29;20032;-91
2023/05/24 00:06:39;;;;;;;12.32;6.55;;;;;;;13.47;80.39;99136.59;4867467;29;20024;-92
2023/05/24 00:09:04;;;;;;;8.25;5.15;;;;;;;13.16;80.27;99114.56;4867157;29;20032;-92
2023/05/24 00:11:30;;;;;;;9.20;5.05;;;;;;;13.14;80.26;99112.16;4886345;29;20033;-92
2023/05/24 00:13:56;;;;;;;9.88;5.45;;;;;;;13.10;80.23;99108.44;4871501;29;20115;-92
2023/05/24 00:16:21;;;;;;;9.20;5.10;;;;;;;13.02;80.44;99098.25;4870674;29;20503;-92
2023/05/24 00:18:46;;;;;;;8.20;5.35;;;;;;;13.12;80.22;99113.56;4870956;29;20033;-92
2023/05/24 00:21:12;;;;;;;13.40;5.80;;;;;;;13.21;79.98;99116.41;4871492;29;20025;-93
2023/05/24 00:23:38;;;;;;;9.45;5.78;;;;;;;13.00;80.55;99091.56;4870833;29;20028;-92
2023/05/24 00:26:04;;;;;;;12.32;6.10;;;;;;;13.11;80.16;99107.34;4871150;29;20052;-92
2023/05/24 00:28:32;;;;;;;13.38;5.80;;;;;;;13.05;80.48;99103.09;4870762;29;20044;-92
2023/05/24 00:30:58;;;;;;;11.52;5.63;;;;;;;13.02;80.61;99100.97;4871156;29;20044;-92
2023/05/24 00:33:25;;;;;;;9.77;5.63;;;;;;;13.12;80.72;99110.84;4871043;29;20155;-92
2023/05/24 00:35:57;;;;;;;13.00;6.47;;;;;;;13.05;80.20;99086.88;4870718;29;20039;-91
2023/05/24 00:38:23;;;;;;;15.25;5.80;;;;;;;13.20;79.40;99091.28;4871389;29;20518;-92
2023/05/24 00:40:48;;;;;;;10.10;5.70;;;;;;;13.29;79.84;99105.75;4886427;29;20028;-92
2023/05/24 00:43:14;;;;;;;13.32;5.68;;;;;;;13.12;79.81;99095.44;4871593;29;20031;-92
2023/05/24 00:45:40;;;;;;;10.27;6.35;;;;;;;13.04;80.17;99084.47;4871040;29;20029;-92
2023/05/24 00:48:05;;;;;;;12.40;6.03;;;;;;;13.10;80.25;99096.81;4870943;29;20020;-92
2023/05/24 00:50:31;;;;;;;9.82;5.22;;;;;;;13.06;80.02;99093.88;4870621;29;20396;-91
2023/05/24 00:53:02;;;;;;;8.95;5.30;;;;;;;12.96;80.36;99102.13;4887153;29;20028;-92
2023/05/24 00:55:28;;;;;;;10.18;5.40;;;;;;;12.92;80.47;99091.09;4870481;29;20032;-92
2023/05/24 00:57:56;;;;;;;10.65;5.82;;;;;;;13.06;80.41;99112.00;4885366;29;20052;-92
2023/05/24 01:00:22;;;;;;;12.45;5.35;;;;;;;12.98;80.33;99097.25;4869676;29;20035;-92
2023/05/24 01:02:48;;;;;;;6.00;4.72;;;;;;;12.97;80.12;99095.66;4870073;29;20024;-92
2023/05/24 01:05:16;;;;;;;8.48;5.47;;;;;;;12.97;80.16;99098.34;4869782;29;20025;-93
2023/05/24 01:08:14;;;;;;;8.70;4.68;;;;;;;13.05;79.63;99118.50;4870097;29;20388;-92
2023/05/24 01:11:00;;;;;;;13.35;5.03;;;;;;;12.92;79.81;99120.81;4900373;29;20044;-92
2023/05/24 01:13:46;;;;;;;7.60;4.22;;;;;;;12.86;80.34;99123.88;4900532;29;20041;-92
2023/05/24 01:16:21;;;;;;;8.13;4.60;;;;;;;12.61;80.14;99082.56;4900337;29;20060;-91
2023/05/24 01:18:55;;;;;;;8.45;4.55;;;;;;;12.63;80.33;99104.69;4869799;29;20519;-92
2023/05/24 01:21:48;;;;;;;14.15;5.05;;;;;;;12.68;80.41;99123.56;4884886;29;20028;-92
2023/05/24 01:24:41;;;;;;;23.27;6.88;;;;;;;12.65;80.77;99132.22;4902368;29;20033;-92
2023/05/24 01:27:13;;;;;;;10.68;4.90;;;;;;;12.55;81.02;99126.94;4885639;29;20024;-92
2023/05/24 01:29:38;;;;;;;6.68;4.85;;;;;;;12.61;81.24;99139.28;4885120;29;20202;-92
2023/05/24 01:32:04;;;;;;;8.82;4.82;;;;;;;12.45;80.94;99108.16;4885176;29;20025;-92
2023/05/24 01:34:30;;;;;;;14.27;5.30;;;;;;;12.38;81.30;99110.41;4900324;29;20028;-92
2023/05/24 01:36:55;;;;;;;6.00;4.68;;;;;;;12.47;81.10;99112.19;4869943;29;20027;-93
2023/05/24 01:39:21;;;;;;;6.63;4.63;;;;;;;12.63;80.35;99123.59;4869080;29;20024;-92
2023/05/24 01:42:12;;;;;;;9.10;5.28;;;;;;;12.86;80.58;99135.47;4869824;29;20032;-92
2023/05/24 01:44:50;;;;;;;6.07;4.57;;;;;;;12.69;80.03;99097.34;4900707;29;20025;-92
2023/05/24 01:47:20;;;;;;;9.27;4.90;;;;;;;12.72;80.11;99111.09;4869463;29;20471;-92
2023/05/24 01:49:49;;;;;;;7.03;4.53;;;;;;;12.70;80.06;99113.28;4884574;29;20448;-92
2023/05/24 01:52:15;;;;;;;7.05;4.78;;;;;;;12.74;79.66;99105.38;4869175;29;20080;-92
2023/05/24 01:54:43;;;;;;;6.60;4.53;;;;;;;12.94;79.32;99112.44;4869196;29;20035;-92
2023/05/24 01:57:09;;;;;;;6.97;4.75;;;;;;;12.81;79.02;99092.34;4869457;29;20024;-92
2023/05/24 01:59:35;;;;;;;7.60;4.43;;;;;;;12.71;79.49;99103.25;4869444;29;20051;-92
2023/05/24 02:02:01;;;;;;;9.70;4.65;;;;;;;12.47;79.70;99103.25;4868938;29;20028;-92
2023/05/24 02:04:26;;;;;;;6.68;4.20;;;;;;;12.51;80.10;99121.34;4868755;29;20043;-92
2023/05/24 02:06:53;;;;;;;9.65;4.15;;;;;;;12.54;79.43;99136.94;4869444;29;20036;-92
2023/05/24 02:09:18;;;;;;;6.32;4.43;;;;;;;12.28;79.01;99109.41;4870170;29;20428;-92
2023/05/24 02:11:44;;;;;;;7.30;4.35;;;;;;;12.31;79.49;99126.94;4869771;29;20028;-92
2023/05/24 02:14:12;;;;;;;5.22;3.67;;;;;;;12.31;79.67;99132.34;4884637;29;20029;-92
2023/05/24 02:16:41;;;;;;;5.63;4.30;;;;;;;12.18;79.97;99123.03;4870228;29;20032;-92
2023/05/24 02:19:09;;;;;;;7.47;4.57;;;;;;;12.07;80.13;99113.41;4870707;29;20052;-92
2023/05/24 02:21:35;;;;;;;8.98;4.15;;;;;;;12.15;80.33;99128.19;4869456;29;20033;-92
2023/05/24 02:24:01;;;;;;;5.88;4.15;;;;;;;12.21;79.70;99119.75;4870008;29;20020;-92
2023/05/24 02:26:26;;;;;;;5.95;4.30;;;;;;;12.30;79.79;99131.53;4869254;29;20028;-92
2023/05/24 02:28:51;;;;;;;8.15;4.40;;;;;;;12.18;80.23;99131.13;4869194;29;20029;-92
2023/05/24 02:31:17;;;;;;;7.65;4.60;;;;;;;12.13;79.98;99121.16;4868880;29;20027;-91
2023/05/24 02:33:43;;;;;;;11.45;4.43;;;;;;;12.14;80.60;99127.38;4852759;29;20060;-92
2023/05/24 02:36:08;;;;;;;6.47;4.63;;;;;;;12.03;80.83;99125.84;4854074;29;20026;-92
2023/05/24 02:38:33;;;;;;;8.50;4.45;;;;;;;12.04;80.66;99124.78;4869161;29;20033;-91
2023/05/24 02:40:59;;;;;;;11.40;4.60;;;;;;;11.89;80.65;99110.34;4852896;29;20024;-92
2023/05/24 02:43:24;;;;;;;12.30;4.80;;;;;;;11.97;80.45;99127.00;4854119;29;20031;-92
2023/05/24 02:45:50;;;;;;;11.27;4.75;;;;;;;11.99;80.44;99119.41;4854196;29;20395;-91
2023/05/24 02:48:15;;;;;;;13.40;5.15;;;;;;;11.97;80.24;99122.38;4853383;29;20021;-92
2023/05/24 02:50:44;;;;;;;9.00;4.72;;;;;;;11.92;80.54;99125.94;4852890;29;20037;-92
2023/05/24 02:53:10;;;;;;;8.65;4.95;;;;;;;12.02;80.37;99124.25;4868368;29;20025;-92
2023/05/24 02:55:36;;;;;;;9.07;4.43;;;;;;;12.07;80.46;99135.00;4853616;29;20028;-91
2023/05/24 02:58:01;;;;;;;7.28;4.80;;;;;;;12.02;80.75;99133.16;4852045;29;20024;-92
2023/05/24 03:00:27;;;;;;;8.95;5.10;;;;;;;11.92;80.69;99117.06;4869455;29;20021;-92
2023/05/24 03:02:54;;;;;;;9.77;4.72;;;;;;;12.03;80.52;99142.84;4854058;29;20117;-92
2023/05/24 03:05:20;;;;;;;9.68;5.35;;;;;;;12.03;80.39;99147.44;4869344;29;20510;-92
2023/05/24 03:07:46;;;;;;;9.15;5.30;;;;;;;11.99;80.41;99135.59;4869002;29;20096;-91
2023/05/24 03:10:11;;;;;;;9.00;4.70;;;;;;;11.93;80.47;99134.84;4869724;29;20119;-92
2023/05/24 03:12:37;;;;;;;7.28;4.60;;;;;;;12.13;80.13;99147.34;4868059;29;20061;-92
2023/05/24 03:15:02;;;;;;;8.43;4.50;;;;;;;11.97;79.85;99133.19;4868168;29;20495;-92
2023/05/24 03:17:28;;;;;;;7.78;5.22;;;;;;;12.09;79.87;99143.63;4851886;29;20036;-92
2023/05/24 03:19:53;;;;;;;6.20;4.10;;;;;;;11.89;80.04;99115.72;4853738;29;20035;-92
2023/05/24 03:22:19;;;;;;;6.75;4.60;;;;;;;11.93;80.04;99119.47;4852248;29;20407;-92
2023/05/24 03:24:46;;;;;;;6.40;4.32;;;;;;;12.04;80.04;99133.69;4852280;29;20082;-92
2023/05/24 03:27:12;;;;;;;5.53;3.88;;;;;;;12.24;78.96;99131.88;4867902;29;20054;-92
2023/05/24 03:29:37;;;;;;;6.30;4.20;;;;;;;12.34;78.49;99137.16;4861398;29;20136;-93
2023/05/24 03:32:03;;;;;;;4.80;3.90;;;;;;;12.43;77.45;99132.75;4864587;29;20029;-93
2023/05/24 03:34:29;;;;;;;6.22;4.15;;;;;;;12.49;76.90;99126.22;4864896;29;20122;-93
2023/05/24 03:36:54;;;;;;;5.85;4.28;;;;;;;12.61;76.91;99142.00;4863814;29;20037;-92
2023/05/24 03:39:20;;;;;;;5.28;4.10;;;;;;;12.67;76.59;99143.56;4849481;29;20032;-93
2023/05/24 03:41:45;;;;;;;6.95;4.57;;;;;;;12.74;76.06;99145.91;4849529;29;20033;-93
2023/05/24 03:44:11;;;;;;;9.25;4.30;;;;;;;12.73;75.97;99138.91;4865177;29;20040;-92
2023/05/24 03:46:37;;;;;;;8.20;4.15;;;;;;;12.86;75.70;99159.00;4849060;29;20029;-92
2023/05/24 03:49:02;;;;;;;9.45;4.30;;;;;;;12.83;75.61;99146.09;4850125;29;20400;-93
2023/05/24 03:51:28;;;;;;;10.45;4.05;;;;;;;12.84;75.49;99132.25;4864870;29;20033;-92
2023/05/24 03:53:59;;;;;;;7.10;3.70;;;;;;;12.98;75.02;99148.59;4864806;29;20104;-92
2023/05/24 03:56:25;;;;;;;6.32;3.90;;;;;;;13.14;74.82;99179.75;4849082;29;20032;-92
2023/05/24 03:58:51;;;;;;;9.60;4.03;;;;;;;12.96;75.11;99156.19;4864402;29;20029;-93
2023/05/24 04:01:17;;;;;;;14.43;4.82;;;;;;;12.91;75.63;99145.44;4863687;29;20110;-93
2023/05/24 04:03:44;;;;;;;6.53;3.95;;;;;;;13.17;74.46;99153.22;4863795;29;20040;-92
2023/05/24 04:06:10;;;;;;;6.53;3.47;;;;;;;13.22;73.57;99150.44;4848171;29;20161;-91
2023/05/24 04:08:36;;;;;;;4.78;3.55;;;;;;;13.32;73.53;99161.13;4849589;29;20089;-91
2023/05/24 04:11:02;;;;;;;5.63;3.63;;;;;;;13.28;73.43;99147.38;4863817;29;20037;-91
2023/05/24 04:13:27;;;;;;;7.05;4.22;;;;;;;13.35;72.77;99147.06;4863862;29;20041;-91
2023/05/24 04:15:53;;;;;;;6.47;3.33;;;;;;;13.27;72.63;99132.25;4848204;29;20043;-92
2023/05/24 04:18:18;;;;;;;7.30;3.90;;;;;;;13.31;72.80;99132.50;4863662;29;20093;-93
2023/05/24 04:20:43;;;;;;;5.47;3.40;;;;;;;13.31;73.69;99154.13;4863686;29;20032;-93
2023/05/24 04:23:09;;;;;;;6.30;3.78;;;;;;;13.18;74.51;99135.88;4879320;29;20032;-90
2023/05/24 04:25:34;;;;;;;7.68;4.30;;;;;;;13.36;73.96;99166.78;4862947;29;20044;-92
2023/05/24 04:28:02;;;;;;;9.02;4.00;;;;;;;13.24;74.58;99145.53;4863631;29;20393;-91
2023/05/24 04:30:29;;;;;;;4.07;3.42;;;;;;;13.30;73.75;99144.41;4861739;29;20064;-91
2023/05/24 04:32:55;;;;;;;6.95;4.10;;;;;;;13.33;74.02;99143.84;4884535;29;20059;-93
2023/05/24 04:35:21;;;;;;;7.30;3.83;;;;;;;13.51;73.22;99153.84;4866037;29;20081;-91
2023/05/24 04:37:49;;;;;;;6.85;3.70;;;;;;;13.51;73.74;99144.94;4882006;29;20495;-91
2023/05/24 04:40:15;;;;;;;5.22;3.40;;;;;;;13.64;73.07;99163.13;4897592;29;20029;-91
2023/05/24 04:42:41;;;;;;;6.63;3.75;;;;;;;13.89;72.53;99186.28;4866497;29;20476;-91
2023/05/24 04:45:07;;;;;;;4.25;3.20;;;;;;;13.79;72.11;99148.53;4866345;29;20032;-92
2023/05/24 04:47:32;;;;;;;5.03;3.85;;;;;;;13.89;72.73;99164.63;4866143;29;20419;-92
2023/05/24 04:50:00;;;;;;;7.50;3.67;;;;;;;13.91;72.10;99161.63;4882553;29;20033;-92
2023/05/24 04:52:26;;;;;;;3.85;3.28;;;;;;;13.93;71.39;99154.81;4866637;29;20037;-91
2023/05/24 04:54:54;;;;;;;4.75;3.50;;;;;;;14.11;71.16;99161.28;4866444;29;20032;-92
2023/05/24 04:57:19;;;;;;;6.68;4.30;;;;;;;14.25;71.11;99174.06;4869111;29;20039;-92
2023/05/24 04:59:45;;;;;;;5.38;4.25;;;;;;;14.17;70.57;99158.50;4869791;29;20423;-91
2023/05/24 05:02:10;;;;;;;9.10;5.47;;;;;;;14.14;70.59;99165.31;4869839;29;20032;-93
2023/05/24 05:04:39;;;;;;;5.95;4.65;;;;;;;14.37;70.40;99198.75;4885614;29;20035;-91
2023/05/24 05:07:04;;;;;;;11.32;7.97;;;;;;;14.39;70.36;99183.00;4869292;29;20468;-91
2023/05/24 05:09:30;;;;;;;8.70;6.32;;;;;;;14.67;69.84;99192.03;4870103;29;20048;-91
2023/05/24 05:11:55;;;;;;;8.10;6.75;;;;;;;14.62;69.83;99170.44;4870343;29;20032;-91
2023/05/24 05:14:21;;;;;;;19.42;11.75;;;;;;;14.77;69.25;99176.66;4869820;29;20036;-91
2023/05/24 05:16:46;;;;;;;6.85;5.65;;;;;;;14.83;69.48;99175.47;4869184;29;20037;-92
2023/05/24 05:19:12;;;;;;;5.50;4.35;;;;;;;14.91;68.60;99144.94;4869606;29;20040;-92
2023/05/24 05:21:38;;;;;;;5.50;4.00;;;;;;;15.22;68.66;99195.81;4868558;29;20179;-92
2023/05/24 05:24:04;;;;;;;6.95;4.65;;;;;;;15.21;69.19;99184.19;4869532;29;20024;-93
2023/05/24 05:26:29;;;;;;;5.85;4.40;;;;;;;15.16;69.08;99154.44;4870151;29;20028;-92
2023/05/24 05:28:56;;;;;;;6.63;4.60;;;;;;;15.31;68.83;99164.16;4869267;29;20029;-92
2023/05/24 05:31:22;;;;;;;6.55;3.90;;;;;;;15.45;68.20;99181.19;4869400;29;20111;-91
2023/05/24 05:33:47;;;;;;;11.30;4.65;;;;;;;15.54;67.66;99184.81;4854749;29;20524;-93
2023/05/24 05:36:14;;;;;;;6.75;4.47;;;;;;;15.78;67.51;99197.31;4854154;29;20506;-92
2023/05/24 05:38:39;;;;;;;6.88;4.55;;;;;;;15.62;67.46;99174.31;4870042;29;20040;-92
2023/05/24 05:41:06;;;;;;;7.07;4.88;;;;;;;15.89;67.07;99195.16;4854207;29;20056;-93
2023/05/24 05:43:31;;;;;;;6.68;5.57;;;;;;;15.91;67.04;99182.06;4870204;29;20073;-93
2023/05/24 05:45:57;;;;;;;7.50;5.65;;;;;;;16.06;66.18;99186.31;4885264;29;20506;-92
2023/05/24 05:48:22;;;;;;;6.40;4.78;;;;;;;16.32;65.36;99195.44;4853621;29;20033;-92
2023/05/24 05:50:48;;;;;;;6.60;4.93;;;;;;;16.36;64.59;99196.44;4853636;29;20033;-93
2023/05/24 05:53:14;;;;;;;7.78;4.57;;;;;;;16.30;63.96;99172.44;4854444;29;20120;-93
2023/05/24 05:55:40;;;;;;;7.55;5.75;;;;;;;16.39;63.69;99184.13;4853486;29;20172;-92
2023/05/24 05:58:05;;;;;;;17.05;6.45;;;;;;;16.49;63.64;99194.75;4869639;29;20048;-91
2023/05/24 06:00:31;;;;;;;8.15;6.63;;;;;;;16.62;63.48;99198.50;4853757;29;20032;-92
2023/05/24 06:02:57;;;;;;;10.15;6.90;;;;;;;16.74;63.10;99197.91;4853479;29;20028;-92
2023/05/24 06:05:23;;;;;;;9.40;7.15;;;;;;;16.83;63.45;99189.78;4870345;29;20032;-91
2023/05/24 06:07:48;;;;;;;11.63;7.78;;;;;;;17.03;63.01;99207.47;4870209;29;20036;-93
2023/05/24 06:10:14;;;;;;;9.63;6.28;;;;;;;17.18;62.10;99212.47;4852380;29;20480;-92
2023/05/24 06:12:41;;;;;;;9.88;7.20;;;;;;;17.23;61.87;99198.72;4867465;29;20451;-92
2023/05/24 06:15:07;;;;;;;10.02;6.40;;;;;;;17.37;61.51;99188.50;4867920;29;20036;-91
2023/05/24 06:17:33;;;;;;;13.40;7.35;;;;;;;17.72;61.01;99201.34;4882429;29;20542;-91
2023/05/24 06:19:59;;;;;;;14.35;7.22;;;;;;;17.80;62.11;99194.28;4852519;29;20032;-92
2023/05/24 06:22:26;;;;;;;9.25;7.13;;;;;;;17.83;62.39;99199.16;4867979;29;20038;-92
2023/05/24 06:24:52;;;;;;;9.70;7.00;;;;;;;17.80;61.97;99191.56;4868918;29;20088;-92
2023/05/24 06:27:18;;;;;;;14.55;7.30;;;;;;;18.06;62.92;99205.22;4868312;29;20513;-91
2023/05/24 06:29:43;;;;;;;12.80;8.10;;;;;;;17.99;62.35;99186.59;4844680;29;20049;-92
2023/05/24 06:32:13;;;;;;;14.40;8.20;;;;;;;18.15;62.03;99197.81;4850323;29;20525;-92
2023/05/24 06:34:39;;;;;;;14.50;7.82;;;;;;;18.24;61.95;99193.16;4865051;29;20399;-92
2023/05/24 06:37:04;;;;;;;11.85;8.50;;;;;;;18.36;61.29;99201.47;4864322;29;20127;-92
2023/05/24 06:39:30;;;;;;;14.05;8.52;;;;;;;18.26;60.81;99196.38;4865809;29;20408;-92
2023/05/24 06:41:56;;;;;;;19.23;11.20;;;;;;;18.21;61.24;99182.91;4850331;29;20081;-94
2023/05/24 06:44:22;;;;;;;12.68;8.20;;;;;;;18.38;60.94;99191.03;4865849;29;20404;-92
2023/05/24 06:46:48;;;;;;;10.60;8.05;;;;;;;18.55;59.91;99181.19;4865877;29;20036;-92
2023/05/24 06:49:16;;;;;;;13.77;8.20;;;;;;;18.65;60.39;99191.75;4865679;29;20472;-95
2023/05/24 06:51:41;;;;;;;16.02;8.77;;;;;;;18.66;59.97;99193.34;4864732;29;20036;-91
2023/05/24 06:54:07;;;;;;;14.27;8.23;;;;;;;18.98;59.29;99204.81;4848616;29;20025;-92
2023/05/24 06:56:32;;;;;;;12.13;8.32;;;;;;;19.06;59.03;99182.13;4848249;29;20048;-92
2023/05/24 06:58:58;;;;;;;12.73;8.55;;;;;;;19.20;59.03;99190.09;4863459;29;20052;-91
2023/05/24 07:01:24;;;;;;;12.75;8.25;;;;;;;19.34;58.43;99184.34;4864474;29;20041;-92
2023/05/24 07:03:49;;;;;;;26.98;14.88;;;;;;;19.55;58.99;99190.66;4863826;29;20041;-94
2023/05/24 07:06:17;;;;;;;26.17;12.10;;;;;;;19.78;57.96;99188.41;4849075;29;20389;-92
2023/05/24 07:08:43;;;;;;;10.20;8.05;;;;;;;19.88;57.70;99184.47;4867001;29;20528;-92
2023/05/24 07:11:08;;;;;;;12.23;8.38;;;;;;;19.89;57.39;99175.13;4863739;29;20068;-93
2023/05/24 07:13:34;;;;;;;11.40;8.40;;;;;;;20.17;57.98;99190.94;4849699;29;20036;-93
2023/05/24 07:16:00;;;;;;;10.20;7.25;;;;;;;20.25;56.34;99176.38;4865868;29;20104;-92
2023/05/24 07:18:25;;;;;;;11.38;6.35;;;;;;;20.50;56.17;99195.56;4849851;29;20029;-93
2023/05/24 07:20:51;;;;;;;10.57;7.05;;;;;;;20.65;55.01;99188.66;4850432;29;20045;-92
2023/05/24 07:23:16;;;;;;;13.88;6.75;;;;;;;20.73;54.86;99177.66;4848563;29;20033;-92
2023/05/24 07:25:42;;;;;;;12.55;9.27;;;;;;;20.71;54.85;99179.94;4851023;29;20037;-93
2023/05/24 07:28:07;;;;;;;12.48;6.75;;;;;;;20.96;54.55;99210.03;4865753;29;20029;-92
2023/05/24 07:30:33;;;;;;;7.35;5.00;;;;;;;20.93;52.84;99191.56;4863160;29;20060;-93
2023/05/24 07:32:59;;;;;;;13.82;6.05;;;;;;;21.09;52.61;99194.41;4883465;29;20052;-93
2023/05/24 07:35:25;;;;;;;7.07;5.60;;;;;;;21.05;52.08;99177.88;4869083;29;20067;-93
2023/05/24 07:37:50;;;;;;;7.88;5.47;;;;;;;21.24;52.76;99171.00;4884532;29;20084;-94
2023/05/24 07:40:19;;;;;;;8.55;5.35;;;;;;;21.47;52.51;99182.28;4868179;29;20024;-92
2023/05/24 07:42:46;;;;;;;10.13;6.20;;;;;;;21.52;51.35;99177.38;4868552;29;20029;-94
2023/05/24 07:45:12;;;;;;;7.03;4.18;;;;;;;21.73;50.63;99185.41;4882126;29;20107;-93
2023/05/24 07:47:39;;;;;;;9.98;3.97;;;;;;;21.97;49.83;99183.72;4882595;29;20444;-92
2023/05/24 07:50:05;;;;;;;9.40;4.00;;;;;;;22.08;49.15;99192.22;4882330;29;20021;-93
2023/05/24 07:52:31;;;;;;;6.60;4.20;;;;;;;22.25;49.50;99197.44;4881810;29;20102;-93
2023/05/24 07:54:59;;;;;;;21.48;5.70;;;;;;;22.35;49.65;99205.16;4882545;29;20028;-93
2023/05/24 07:57:25;;;;;;;8.70;5.22;;;;;;;22.24;49.17;99201.31;4882311;29;20507;-93
2023/05/24 07:59:50;;;;;;;11.50;5.38;;;;;;;22.52;49.16;99215.00;4881936;29;20123;-92
2023/05/24 08:02:16;;;;;;;10.63;4.68;;;;;;;22.46;50.04;99188.19;4866282;29;20044;-94
2023/05/24 08:04:45;;;;;;;10.27;7.78;;;;;;;22.62;49.73;99186.25;4898974;29;20032;-93
2023/05/24 08:07:10;;;;;;;13.13;4.22;;;;;;;22.71;48.95;99197.06;4883082;29;20028;-93
2023/05/24 08:09:37;;;;;;;9.13;4.38;;;;;;;22.65;47.88;99173.78;4882813;29;20029;-91
2023/05/24 08:12:03;;;;;;;5.60;4.05;;;;;;;22.91;46.79;99187.75;4868102;29;20123;-93
2023/05/24 08:14:29;;;;;;;8.18;4.60;;;;;;;22.95;47.10;99180.41;4884696;29;20043;-93
2023/05/24 08:16:55;;;;;;;6.68;4.05;;;;;;;23.04;47.58;99187.69;4867945;29;20032;-93
2023/05/24 08:19:22;;;;;;;6.72;3.78;;;;;;;23.07;45.69;99189.69;4884258;29;20129;-93
2023/05/24 08:21:50;;;;;;;8.57;3.92;;;;;;;22.86;46.72;99178.97;4899260;29;20021;-92
2023/05/24 08:24:51;;;;;;;8.82;3.50;;;;;;;23.14;43.06;99198.91;4867006;29;20112;-93
2023/05/24 08:27:37;;;;;;;6.00;3.33;;;;;;;23.20;41.65;99189.25;4843931;29;20041;-92
2023/05/24 08:37:04;;;;;;;5.07;2.63;;;;;;;23.46;41.42;99211.78;4869110;29;20116;-93
2023/05/24 08:39:30;;;;;;;5.00;3.00;;;;;;;23.17;41.27;99194.66;4866900;29;20093;-94
2023/05/24 08:41:56;;;;;;;4.05;2.42;;;;;;;23.31;42.38;99203.22;4866119;29;20029;-93
2023/05/24 08:44:22;;;;;;;5.95;2.85;;;;;;;23.28;42.28;99205.88;4850353;29;20032;-92
2023/05/24 08:46:47;;;;;;;5.85;2.80;;;;;;;23.38;42.36;99197.88;4881874;29;20029;-91
2023/05/24 08:49:13;;;;;;;6.75;2.88;;;;;;;23.35;41.71;99195.84;4881110;29;20407;-94
2023/05/24 08:51:40;;;;;;;4.00;2.58;;;;;;;23.56;42.45;99220.25;4882368;29;20549;-92
2023/05/24 08:54:06;;;;;;;5.65;3.00;;;;;;;23.32;42.07;99190.25;4865834;29;20025;-93
2023/05/24 08:56:31;;;;;;;7.57;2.63;;;;;;;23.28;41.96;99192.94;4865453;29;20028;-94
2023/05/24 08:59:00;;;;;;;5.60;2.72;;;;;;;23.31;41.71;99194.19;4865346;29;20025;-92
2023/05/24 09:01:26;;;;;;;5.30;2.50;;;;;;;23.32;41.59;99196.56;4880850;29;20049;-93
2023/05/24 09:03:51;;;;;;;5.28;2.80;;;;;;;23.46;41.88;99204.31;4881324;29;20051;-92
2023/05/24 09:06:17;;;;;;;3.60;2.55;;;;;;;23.34;41.49;99190.72;4850404;29;20025;-92
2023/05/24 09:08:44;;;;;;;4.22;2.30;;;;;;;23.39;38.94;99198.69;4866556;29;20040;-92
2023/05/24 09:11:09;;;;;;;5.10;2.35;;;;;;;23.33;39.74;99189.13;4851698;29;20413;-92
2023/05/24 09:13:38;;;;;;;4.15;2.47;;;;;;;23.43;40.17;99201.50;4881496;29;20037;-92
2023/05/24 09:16:04;;;;;;;4.00;2.40;;;;;;;23.33;39.32;99205.63;4881052;29;20176;-94
2023/05/24 09:18:30;;;;;;;3.67;2.35;;;;;;;23.27;40.02;99193.31;4882276;29;20104;-93
2023/05/24 09:20:55;;;;;;;3.67;2.80;;;;;;;23.15;40.34;99191.47;4866250;29;20061;-91
2023/05/24 09:23:21;;;;;;;5.82;2.75;;;;;;;23.33;40.94;99208.34;4866184;29;20448;-92
2023/05/24 09:25:47;;;;;;;3.60;2.60;;;;;;;23.34;40.50;99207.97;4881896;29;20025;-92
2023/05/24 09:28:17;;;;;;;3.67;2.42;;;;;;;23.48;39.46;99210.25;4881986;29;20035;-92
2023/05/24 09:30:43;;;;;;;5.35;2.58;;;;;;;23.48;40.31;99210.25;4882327;29;20057;-92
2023/05/24 09:33:11;;;;;;;4.05;2.58;;;;;;;23.40;40.13;99208.50;4852639;29;20025;-92
2023/05/24 09:35:37;;;;;;;4.32;2.28;;;;;;;23.51;39.62;99215.06;4897924;29;20016;-94
2023/05/24 09:38:05;;;;;;;4.38;2.20;;;;;;;23.52;39.37;99218.59;4883632;29;20033;-94
2023/05/24 09:40:31;;;;;;;10.52;2.50;;;;;;;23.56;39.43;99213.97;4866945;29;20104;-93
2023/05/24 09:43:10;;;;;;;4.50;2.55;;;;;;;23.64;39.11;99195.66;4864820;29;20028;-94
2023/05/24 09:45:48;;;;;;;3.42;2.28;;;;;;;23.62;38.32;99190.53;4867063;29;20453;-93
2023/05/24 09:48:15;;;;;;;3.42;2.40;;;;;;;23.84;38.56;99208.28;4852164;29;20052;-92
2023/05/24 09:50:40;;;;;;;5.50;2.50;;;;;;;23.82;38.82;99202.34;4864707;29;20029;-91
2023/05/24 09:53:07;;;;;;;3.53;2.30;;;;;;;23.91;38.67;99211.19;4880217;29;20425;-94
2023/05/24 09:55:37;;;;;;;5.25;2.45;;;;;;;24.02;38.19;99199.63;4864684;29;20048;-94
2023/05/24 09:58:04;;;;;;;3.00;2.03;;;;;;;23.83;38.63;99198.47;4864542;29;20496;-94
2023/05/24 10:00:38;;;;;;;7.13;2.47;;;;;;;23.99;38.28;99198.41;4834124;29;20052;-94
2023/05/24 10:03:07;;;;;;;8.80;2.78;;;;;;;23.89;38.45;99191.50;4845501;29;20044;-93
2023/05/24 10:05:33;;;;;;;3.47;2.60;;;;;;;23.97;38.29;99204.25;4866203;29;20056;-92
2023/05/24 10:08:00;;;;;;;4.72;2.78;;;;;;;24.04;38.53;99183.56;4865962;29;20044;-92
2023/05/24 10:10:35;;;;;;;10.82;2.15;;;;;;;24.11;37.75;99183.66;4866062;29;20112;-93
2023/05/24 10:13:01;;;;;;;3.28;2.30;;;;;;;24.26;37.64;99191.06;4880556;29;20056;-91
2023/05/24 10:15:26;;;;;;;11.45;3.13;;;;;;;24.27;38.81;99175.34;4849249;29;20060;-93
2023/05/24 10:17:55;;;;;;;5.45;2.42;;;;;;;24.34;37.97;99178.19;4879365;29;20060;-92
2023/05/24 10:20:25;;;;;;;6.57;1.98;;;;;;;24.37;36.80;99174.72;4834714;29;20025;-92
2023/05/24 10:22:53;;;;;;;3.47;2.33;;;;;;;24.45;35.76;99179.19;4880158;29;20389;-92
2023/05/24 10:25:26;;;;;;;3.33;1.90;;;;;;;24.50;35.89;99164.34;4880999;29;20056;-92
2023/05/24 10:27:53;;;;;;;4.43;2.40;;;;;;;24.63;34.93;99170.47;4835956;29;20092;-93
2023/05/24 10:30:40;;;;;;;3.75;2.22;;;;;;;24.74;34.12;99193.50;4881238;29;20057;-93
2023/05/24 10:33:06;;;;;;;6.35;2.15;;;;;;;24.53;35.37;99169.94;4876078;29;20029;-93
2023/05/24 10:35:32;;;;;;;3.80;2.20;;;;;;;24.30;35.51;99171.84;4864823;29;20104;-92
2023/05/24 10:38:04;;;;;;;7.25;2.38;;;;;;;24.31;34.98;99162.44;4880819;29;20048;-91
2023/05/24 10:40:29;;;;;;;;;;;;;;;24.38;35.72;99179.88;4865586;29;20544;-91
2023/05/24 10:43:02;;;;;;;5.55;2.10;;;;;;;24.28;36.17;99158.47;4864867;29;19980;-91
2023/05/24 10:45:30;;;;;;;3.63;2.55;;;;;;;24.31;37.15;99162.44;4881049;29;20025;-92
2023/05/24 10:47:57;;;;;;;4.03;2.13;;;;;;;24.27;36.30;99156.84;4879981;29;20028;-92
2023/05/24 10:50:26;;;;;;;3.35;2.20;;;;;;;24.35;35.29;99168.78;4865872;29;20063;-92
2023/05/24 10:53:07;;;;;;;4.70;2.45;;;;;;;24.37;34.92;99152.72;4866000;29;20419;-92
2023/05/24 10:55:33;;;;;;;4.45;2.47;;;;;;;24.33;35.09;99146.34;4865465;29;20044;-94
2023/05/24 10:57:59;;;;;;;3.53;2.00;;;;;;;24.32;34.91;99134.56;4879930;29;20389;-94
2023/05/24 11:00:26;;;;;;;6.00;2.33;;;;;;;24.41;34.70;99137.06;4865376;29;20409;-93
2023/05/24 11:03:08;;;;;;;2.58;2.10;;;;;;;24.40;34.82;99130.75;4849879;29;20025;-92
2023/05/24 11:05:54;;;;;;;3.75;2.10;;;;;;;24.47;34.15;99127.34;4865612;29;20456;-94
2023/05/24 11:08:30;;;;;;;3.05;2.22;;;;;;;24.64;34.78;99139.03;4848892;29;20464;-93
2023/05/24 11:11:03;;;;;;;3.50;2.05;;;;;;;24.64;34.85;99141.78;4864447;29;20029;-90
2023/05/24 11:13:31;;;;;;;4.85;2.60;;;;;;;24.63;34.94;99135.47;4880328;29;20415;-92
2023/05/24 11:15:57;;;;;;;4.90;2.28;;;;;;;24.46;34.75;99120.22;4867583;29;20041;-94
2023/05/24 11:18:22;;;;;;;3.17;2.08;;;;;;;24.59;34.54;99126.34;4880517;29;20101;-93
2023/05/24 11:20:48;;;;;;;2.72;2.00;;;;;;;24.68;34.43;99132.41;4880687;29;20053;-93
2023/05/24 11:23:14;;;;;;;3.05;2.10;;;;;;;24.63;34.57;99113.44;4879223;29;20029;-94
2023/05/24 11:25:43;;;;;;;3.75;2.38;;;;;;;24.80;35.19;99123.16;4864932;29;20025;-93
2023/05/24 11:28:09;;;;;;;3.42;1.92;;;;;;;25.05;34.81;99137.31;4864744;29;20492;-94
2023/05/24 11:30:45;;;;;;;4.82;2.30;;;;;;;24.97;34.52;99105.31;4877219;29;20423;-94
2023/05/24 11:33:21;;;;;;;3.33;2.20;;;;;;;25.09;34.59;99124.38;4867942;29;20419;-94
2023/05/24 11:35:48;;;;;;;3.92;2.13;;;;;;;25.08;35.56;99109.00;4869205;29;20044;-94
2023/05/24 11:38:14;;;;;;;3.45;2.28;;;;;;;25.18;35.54;99126.84;4882700;29;20088;-94
2023/05/24 11:40:46;;;;;;;4.10;2.00;;;;;;;25.12;36.18;99117.31;4868063;29;20043;-94